Time;durP1;ratioP1;P1;durP2;ratioP2;P2;SDS_P1;SDS_P2;PMS_P1;PMS_P2;Temp;Humidity;BMP_temperature;BMP_pressure;BME280_temperature;BME280_humidity;BME280_pressure;Samples;Min_cycle;Max_cycle;Signal;HPM_P1;HPM_P2
2024/01/19 00:00:01;;;;;;;18.50;12.00;;;0.90;99.90;;;;;;5031470;28;20463;-72
2024/01/19 00:02:26;;;;;;;14.70;11.20;;;0.80;99.90;;;;;;5014266;28;20424;-71
2024/01/19 00:04:52;;;;;;;15.10;12.70;;;0.90;99.90;;;;;;5033380;28;20609;-71
2024/01/19 00:07:18;;;;;;;17.80;13.17;;;0.80;99.90;;;;;;5032356;28;20214;-72
2024/01/19 00:09:43;;;;;;;16.57;13.20;;;0.80;99.90;;;;;;5017412;28;20653;-71
2024/01/19 00:12:09;;;;;;;17.50;12.93;;;0.80;99.90;;;;;;5036217;28;20186;-71
2024/01/19 00:14:35;;;;;;;18.30;13.50;;;0.70;99.90;;;;;;5019255;28;20224;-71
2024/01/19 00:17:00;;;;;;;17.23;14.13;;;0.70;99.90;;;;;;5036019;28;20894;-72
2024/01/19 00:19:26;;;;;;;24.87;14.80;;;0.70;99.90;;;;;;5035571;28;20185;-71
2024/01/19 00:21:52;;;;;;;22.03;13.90;;;0.60;99.90;;;;;;5036084;28;20186;-71
2024/01/19 00:24:17;;;;;;;23.77;15.70;;;0.60;99.90;;;;;;5035308;28;20213;-71
2024/01/19 00:26:44;;;;;;;20.70;14.63;;;0.60;99.90;;;;;;5036110;28;20211;-71
2024/01/19 00:29:10;;;;;;;22.87;16.60;;;0.60;99.90;;;;;;5034788;28;20704;-71
2024/01/19 00:31:36;;;;;;;26.13;16.43;;;0.50;99.90;;;;;;5035707;28;20573;-71
2024/01/19 00:34:02;;;;;;;22.80;14.87;;;0.50;99.90;;;;;;5035801;28;20787;-71
2024/01/19 00:36:28;;;;;;;23.60;15.83;;;0.50;99.90;;;;;;5034761;28;20505;-71
2024/01/19 00:38:53;;;;;;;26.70;16.00;;;0.50;99.90;;;;;;5036530;28;20798;-71
2024/01/19 00:41:20;;;;;;;24.83;16.73;;;0.50;99.90;;;;;;5017026;28;20444;-71
2024/01/19 00:43:46;;;;;;;27.20;18.40;;;0.50;99.90;;;;;;5035208;28;20255;-71
2024/01/19 00:46:11;;;;;;;29.40;16.30;;;0.50;99.90;;;;;;5034973;28;20562;-71
2024/01/19 00:48:37;;;;;;;26.30;16.07;;;0.40;99.90;;;;;;5035616;28;20664;-71
2024/01/19 00:51:03;;;;;;;25.90;17.00;;;0.40;99.90;;;;;;5035416;28;20433;-71
2024/01/19 00:53:29;;;;;;;21.20;15.03;;;0.40;99.90;;;;;;5035374;28;20568;-71
2024/01/19 00:55:55;;;;;;;26.33;15.90;;;0.40;99.90;;;;;;5035675;28;20433;-71
2024/01/19 00:58:21;;;;;;;23.77;16.03;;;0.40;99.90;;;;;;5033966;28;20195;-71
2024/01/19 01:00:46;;;;;;;28.23;16.20;;;0.30;99.90;;;;;;5035840;28;20296;-71
2024/01/19 01:03:24;;;;;;;24.23;15.20;;;0.30;99.90;;;;;;5035120;28;20189;-71
2024/01/19 01:05:53;;;;;;;23.53;14.33;;;0.30;99.90;;;;;;5018080;28;20237;-71
2024/01/19 01:08:19;;;;;;;25.93;16.60;;;0.30;99.90;;;;;;5034991;28;20528;-72
2024/01/19 01:10:45;;;;;;;21.47;15.17;;;0.30;99.90;;;;;;5035961;28;20515;-71
2024/01/19 01:13:11;;;;;;;23.03;14.30;;;0.30;99.90;;;;;;5034443;28;20209;-71
2024/01/19 01:15:36;;;;;;;24.83;15.30;;;0.40;99.90;;;;;;5034955;28;20445;-71
2024/01/19 01:18:02;;;;;;;22.33;15.10;;;0.40;99.90;;;;;;5035319;28;20186;-71
2024/01/19 01:20:28;;;;;;;26.20;15.10;;;0.40;99.90;;;;;;5033801;28;20305;-71
2024/01/19 01:22:53;;;;;;;22.63;14.60;;;0.40;99.90;;;;;;5035176;28;20206;-71
2024/01/19 01:25:19;;;;;;;22.27;14.67;;;0.40;99.90;;;;;;5034408;28;20195;-71
2024/01/19 01:27:44;;;;;;;24.50;15.47;;;0.40;99.90;;;;;;5017901;28;20217;-71
2024/01/19 01:30:10;;;;;;;19.77;14.13;;;0.30;99.90;;;;;;5034775;28;20189;-71
2024/01/19 01:32:36;;;;;;;27.83;14.77;;;0.30;99.90;;;;;;5034413;28;20252;-71
2024/01/19 01:35:02;;;;;;;24.67;16.13;;;0.30;99.90;;;;;;5034916;28;20188;-71
2024/01/19 01:37:28;;;;;;;20.90;14.93;;;0.40;99.90;;;;;;5034339;28;20269;-71
2024/01/19 01:39:53;;;;;;;22.13;15.20;;;0.40;99.90;;;;;;5035227;28;20503;-71
2024/01/19 01:42:19;;;;;;;22.00;15.20;;;0.40;99.90;;;;;;5033774;28;20243;-71
2024/01/19 01:44:45;;;;;;;22.37;13.97;;;0.30;99.90;;;;;;5017492;28;20190;-71
2024/01/19 01:47:10;;;;;;;19.83;13.80;;;0.30;99.90;;;;;;5034248;28;20221;-72
2024/01/19 01:49:36;;;;;;;20.80;13.03;;;0.30;99.90;;;;;;5034935;28;20189;-71
2024/01/19 01:52:02;;;;;;;19.00;14.13;;;0.30;99.90;;;;;;5034482;28;20269;-71
2024/01/19 01:54:28;;;;;;;21.33;13.30;;;0.30;99.90;;;;;;5034387;28;21030;-70
2024/01/19 01:56:55;;;;;;;20.23;14.97;;;0.30;99.90;;;;;;5034527;28;20463;-71
2024/01/19 01:59:20;;;;;;;20.20;13.73;;;0.20;99.90;;;;;;5015703;28;20441;-71
2024/01/19 02:01:47;;;;;;;20.83;14.17;;;0.20;99.90;;;;;;5034893;28;20484;-71
2024/01/19 02:04:14;;;;;;;19.03;13.30;;;0.20;99.90;;;;;;5033845;28;20636;-71
2024/01/19 02:06:40;;;;;;;18.07;14.37;;;0.10;99.90;;;;;;5034049;28;20465;-70
2024/01/19 02:09:07;;;;;;;21.43;14.80;;;0.10;99.90;;;;;;5017389;28;20437;-71
2024/01/19 02:11:34;;;;;;;21.80;14.00;;;0.10;99.90;;;;;;5034141;28;20203;-71
2024/01/19 02:13:59;;;;;;;17.30;14.30;;;0.10;99.90;;;;;;5034372;28;20429;-71
2024/01/19 02:16:25;;;;;;;18.53;13.07;;;0.10;99.90;;;;;;5033210;28;20440;-71
2024/01/19 02:18:53;;;;;;;22.30;14.60;;;0.10;99.90;;;;;;5034361;28;20271;-71
2024/01/19 02:21:18;;;;;;;19.93;14.20;;;0.00;99.90;;;;;;5033150;28;20198;-71
2024/01/19 02:23:53;;;;;;;18.00;13.47;;;0.00;99.90;;;;;;5034164;28;20432;-70
2024/01/19 02:26:20;;;;;;;17.87;14.03;;;0.00;99.90;;;;;;5033004;28;20214;-71
2024/01/19 02:28:45;;;;;;;18.47;13.13;;;0.00;99.90;;;;;;5016733;28;20431;-71
2024/01/19 02:31:11;;;;;;;19.50;13.70;;;0.00;99.90;;;;;;5032248;28;20428;-71
2024/01/19 02:33:37;;;;;;;22.50;14.43;;;0.00;99.90;;;;;;5034107;28;20195;-71
2024/01/19 02:36:02;;;;;;;20.60;14.60;;;0.00;99.90;;;;;;5033225;28;20189;-71
2024/01/19 02:38:28;;;;;;;18.93;13.77;;;0.00;99.90;;;;;;5033807;28;20660;-71
2024/01/19 02:40:54;;;;;;;21.30;15.17;;;0.00;99.90;;;;;;5034003;28;20194;-70
2024/01/19 02:43:19;;;;;;;21.10;14.60;;;0.00;99.90;;;;;;5032953;28;20186;-71
2024/01/19 02:45:45;;;;;;;24.80;16.43;;;0.10;99.90;;;;;;5033811;28;20188;-71
2024/01/19 02:48:12;;;;;;;19.43;14.50;;;0.10;99.90;;;;;;5033271;28;20191;-71
2024/01/19 02:50:38;;;;;;;22.67;16.17;;;0.00;99.90;;;;;;5033771;28;20594;-71
2024/01/19 02:53:04;;;;;;;24.03;15.60;;;0.00;99.90;;;;;;5033772;28;20424;-71
2024/01/19 02:55:29;;;;;;;23.43;15.53;;;0.00;99.90;;;;;;5033518;28;20679;-71
2024/01/19 02:57:55;;;;;;;24.77;16.53;;;0.00;99.90;;;;;;5033958;28;20186;-71
2024/01/19 03:00:21;;;;;;;24.60;16.23;;;0.00;99.90;;;;;;5032543;28;20273;-71
2024/01/19 03:02:46;;;;;;;26.70;16.80;;;0.00;99.90;;;;;;5034292;28;20178;-71
2024/01/19 03:05:12;;;;;;;26.20;15.80;;;0.00;99.90;;;;;;5031756;28;20190;-71
2024/01/19 03:07:38;;;;;;;25.00;15.47;;;0.00;99.90;;;;;;5033639;28;20816;-71
2024/01/19 03:10:04;;;;;;;26.90;17.00;;;0.00;99.90;;;;;;5033740;28;20212;-71
2024/01/19 03:12:29;;;;;;;25.17;16.73;;;0.00;99.90;;;;;;5033388;28;20261;-71
2024/01/19 03:14:55;;;;;;;25.30;17.33;;;0.00;99.90;;;;;;5015838;28;20526;-71
2024/01/19 03:17:21;;;;;;;28.10;17.00;;;0.00;99.90;;;;;;5032522;28;20202;-71
2024/01/19 03:19:46;;;;;;;26.20;17.67;;;0.00;99.90;;;;;;5033894;28;20240;-71
2024/01/19 03:22:12;;;;;;;26.90;18.50;;;0.00;99.90;;;;;;5032142;28;20181;-71
2024/01/19 03:24:38;;;;;;;27.87;17.30;;;0.00;99.90;;;;;;5033903;28;20182;-71
2024/01/19 03:27:03;;;;;;;27.87;17.10;;;0.00;99.90;;;;;;5032822;28;20221;-71
2024/01/19 03:29:29;;;;;;;25.17;16.60;;;-0.10;99.90;;;;;;5033443;28;20268;-70
2024/01/19 03:31:55;;;;;;;31.03;18.03;;;-0.10;99.90;;;;;;5015930;28;20239;-71
2024/01/19 03:34:21;;;;;;;25.30;16.10;;;-0.10;99.90;;;;;;5032455;28;20304;-72
2024/01/19 03:36:46;;;;;;;28.77;17.53;;;-0.10;99.90;;;;;;5033674;28;20432;-71
2024/01/19 03:39:12;;;;;;;30.70;18.67;;;-0.10;99.90;;;;;;5031743;28;20216;-71
2024/01/19 03:41:38;;;;;;;29.60;17.53;;;0.00;99.90;;;;;;5033353;28;20198;-71
2024/01/19 03:44:04;;;;;;;29.93;17.30;;;0.00;99.90;;;;;;5034684;28;20431;-71
2024/01/19 03:46:29;;;;;;;23.63;16.57;;;0.00;99.90;;;;;;5037042;28;20206;-70
2024/01/19 03:48:55;;;;;;;31.23;17.70;;;0.00;99.90;;;;;;5019535;28;20174;-71
2024/01/19 03:51:21;;;;;;;25.57;15.83;;;0.00;99.90;;;;;;5018522;28;20214;-71
2024/01/19 03:53:46;;;;;;;27.80;16.87;;;0.10;99.90;;;;;;5038060;28;20243;-71
2024/01/19 03:56:12;;;;;;;24.73;15.53;;;0.10;99.90;;;;;;5035204;28;20193;-70
2024/01/19 03:58:38;;;;;;;30.43;17.03;;;0.10;99.90;;;;;;5037287;28;20190;-71
2024/01/19 04:01:05;;;;;;;26.37;16.33;;;0.10;99.90;;;;;;5036279;28;20182;-71
2024/01/19 04:03:31;;;;;;;28.77;16.37;;;0.10;99.90;;;;;;5036695;28;20202;-71
2024/01/19 04:05:57;;;;;;;28.90;15.57;;;0.10;99.90;;;;;;5003591;28;21252;-71
2024/01/19 04:08:22;;;;;;;30.67;16.47;;;0.10;99.90;;;;;;5036484;28;20186;-71
2024/01/19 04:10:48;;;;;;;28.60;15.67;;;0.10;99.90;;;;;;5037115;28;20178;-71
2024/01/19 04:13:14;;;;;;;30.90;16.57;;;0.10;99.90;;;;;;5036376;28;20670;-71
2024/01/19 04:15:39;;;;;;;29.60;15.97;;;0.20;99.90;;;;;;5036903;28;20339;-70
2024/01/19 04:18:05;;;;;;;33.37;16.63;;;0.20;99.90;;;;;;5036034;28;20732;-71
2024/01/19 04:20:31;;;;;;;27.30;16.67;;;0.20;99.90;;;;;;5036499;28;20187;-71
2024/01/19 04:22:56;;;;;;;25.60;15.17;;;0.20;99.90;;;;;;5036979;28;20226;-71
2024/01/19 04:25:22;;;;;;;25.87;15.07;;;0.20;99.90;;;;;;5035577;28;20185;-71
2024/01/19 04:27:48;;;;;;;31.47;17.10;;;0.30;99.90;;;;;;5036401;28;20210;-71
2024/01/19 04:30:13;;;;;;;30.47;16.63;;;0.30;99.90;;;;;;5035551;28;20284;-71
2024/01/19 04:32:39;;;;;;;37.43;16.93;;;0.30;99.90;;;;;;5036552;28;20198;-71
2024/01/19 04:35:05;;;;;;;30.40;16.57;;;0.30;99.90;;;;;;5035438;28;20527;-71
2024/01/19 04:37:31;;;;;;;28.50;16.53;;;0.30;99.90;;;;;;5034388;28;20556;-71
2024/01/19 04:39:56;;;;;;;31.10;16.40;;;0.30;99.90;;;;;;5016923;28;20213;-71
2024/01/19 04:42:22;;;;;;;30.80;17.23;;;0.40;99.90;;;;;;5029614;28;20194;-71
2024/01/19 04:44:47;;;;;;;34.33;17.07;;;0.40;99.90;;;;;;5035707;28;20968;-71
2024/01/19 04:47:13;;;;;;;30.17;16.43;;;0.40;99.90;;;;;;5016765;28;20717;-71
2024/01/19 04:49:39;;;;;;;30.37;15.70;;;0.40;99.90;;;;;;5036297;28;20171;-71
2024/01/19 04:52:05;;;;;;;27.97;15.23;;;0.40;99.90;;;;;;5035209;28;20281;-71
2024/01/19 04:54:30;;;;;;;31.17;16.13;;;0.40;99.90;;;;;;5018186;28;20273;-71
2024/01/19 04:56:56;;;;;;;31.90;17.80;;;0.40;99.90;;;;;;5035396;28;20477;-71
2024/01/19 04:59:22;;;;;;;30.13;15.57;;;0.40;99.90;;;;;;5035328;28;20601;-71
2024/01/19 05:01:48;;;;;;;26.63;15.77;;;0.40;99.90;;;;;;5036109;28;20260;-71
2024/01/19 05:04:13;;;;;;;27.50;15.33;;;0.40;99.90;;;;;;5034713;28;20181;-71
2024/01/19 05:06:39;;;;;;;29.13;16.33;;;0.50;99.90;;;;;;5035736;28;20460;-71
2024/01/19 05:09:05;;;;;;;29.00;14.00;;;0.40;99.90;;;;;;5035012;28;20276;-71
2024/01/19 05:11:31;;;;;;;31.63;15.87;;;0.40;99.90;;;;;;5035864;28;20232;-71
2024/01/19 05:13:56;;;;;;;26.50;14.40;;;0.40;99.90;;;;;;5035694;28;20200;-70
2024/01/19 05:16:22;;;;;;;30.83;15.83;;;0.40;99.90;;;;;;5034582;28;20194;-71
2024/01/19 05:18:48;;;;;;;28.40;16.13;;;0.40;99.90;;;;;;5036388;28;20184;-71
2024/01/19 05:21:14;;;;;;;29.00;15.70;;;0.40;99.90;;;;;;5034430;28;20224;-71
2024/01/19 05:23:39;;;;;;;30.50;15.57;;;0.40;99.90;;;;;;5018231;28;20194;-71
2024/01/19 05:26:05;;;;;;;28.03;14.50;;;0.50;99.90;;;;;;5015996;28;20490;-71
2024/01/19 05:28:33;;;;;;;30.00;16.40;;;0.50;99.90;;;;;;5035717;28;20186;-71
2024/01/19 05:30:59;;;;;;;26.63;15.30;;;0.50;99.90;;;;;;5017130;28;20269;-71
2024/01/19 05:33:25;;;;;;;32.43;16.80;;;0.50;99.90;;;;;;5002243;28;20583;-71
2024/01/19 05:35:50;;;;;;;30.47;15.43;;;0.50;99.90;;;;;;5035088;28;20190;-71
2024/01/19 05:38:16;;;;;;;29.87;15.63;;;0.50;99.90;;;;;;5034722;28;20252;-71
2024/01/19 05:40:41;;;;;;;27.20;13.20;;;0.50;99.90;;;;;;5034155;28;20186;-70
2024/01/19 05:43:07;;;;;;;29.80;14.90;;;0.50;99.90;;;;;;5034474;28;20177;-71
2024/01/19 05:45:33;;;;;;;27.00;15.50;;;0.60;99.90;;;;;;5016841;28;20173;-71
2024/01/19 05:47:59;;;;;;;27.77;14.57;;;0.60;99.90;;;;;;5034045;28;20271;-71
2024/01/19 05:50:24;;;;;;;31.83;14.77;;;0.60;99.90;;;;;;5034542;28;20181;-71
2024/01/19 05:52:50;;;;;;;29.30;14.93;;;0.60;99.90;;;;;;5033683;28;20186;-71
2024/01/19 05:55:15;;;;;;;22.30;14.40;;;0.60;99.90;;;;;;5033879;28;20597;-71
2024/01/19 05:57:41;;;;;;;25.63;14.40;;;0.60;99.90;;;;;;5034970;28;20178;-71
2024/01/19 06:00:08;;;;;;;33.83;15.67;;;0.60;99.90;;;;;;5033957;28;20194;-71
2024/01/19 06:02:33;;;;;;;26.27;15.67;;;0.60;99.90;;;;;;5034865;28;20189;-71
2024/01/19 06:04:59;;;;;;;27.03;14.33;;;0.60;99.90;;;;;;5033538;28;20417;-71
2024/01/19 06:07:25;;;;;;;32.50;16.53;;;0.60;99.90;;;;;;5033919;28;20267;-71
2024/01/19 06:09:51;;;;;;;29.20;15.67;;;0.60;99.90;;;;;;5034722;28;20777;-72
2024/01/19 06:12:16;;;;;;;32.10;15.43;;;0.60;99.90;;;;;;5030884;28;20518;-71
2024/01/19 06:14:42;;;;;;;26.57;14.60;;;0.60;99.90;;;;;;5033115;28;20692;-72
2024/01/19 06:17:11;;;;;;;34.07;18.10;;;0.60;99.90;;;;;;5032681;28;20658;-71
2024/01/19 06:19:36;;;;;;;28.27;14.30;;;0.70;99.90;;;;;;5014496;28;20193;-72
2024/01/19 06:22:02;;;;;;;30.97;16.10;;;0.70;99.90;;;;;;5015706;28;20931;-71
2024/01/19 06:24:34;;;;;;;26.30;15.13;;;0.70;99.90;;;;;;5017068;28;20185;-71
2024/01/19 06:26:59;;;;;;;34.23;17.27;;;0.70;99.90;;;;;;5033820;28;20487;-71
2024/01/19 06:29:26;;;;;;;28.93;15.17;;;0.70;99.90;;;;;;5034248;28;20428;-72
2024/01/19 06:31:52;;;;;;;31.33;15.33;;;0.80;99.90;;;;;;5033753;28;20193;-71
2024/01/19 06:34:18;;;;;;;28.27;16.13;;;0.80;99.90;;;;;;5034028;28;20424;-72
2024/01/19 06:36:47;;;;;;;29.67;16.07;;;0.80;99.90;;;;;;5013056;28;20190;-71
2024/01/19 06:39:12;;;;;;;27.73;13.77;;;0.80;99.90;;;;;;5031576;28;20195;-71
2024/01/19 06:41:45;;;;;;;29.93;14.80;;;0.80;99.90;;;;;;5032756;28;20996;-71
2024/01/19 06:44:11;;;;;;;27.57;14.90;;;0.80;99.90;;;;;;5031302;28;20432;-71
2024/01/19 06:46:37;;;;;;;31.90;14.80;;;0.80;99.90;;;;;;5015166;28;20859;-72
2024/01/19 06:49:03;;;;;;;28.83;14.17;;;0.80;99.90;;;;;;5033067;28;20425;-72
2024/01/19 06:51:29;;;;;;;34.43;16.07;;;0.80;99.90;;;;;;5030790;28;21053;-72
2024/01/19 06:53:56;;;;;;;29.90;15.27;;;0.80;99.90;;;;;;5032058;28;20190;-72
2024/01/19 06:56:22;;;;;;;29.27;16.07;;;0.90;99.90;;;;;;5029993;28;20190;-72
2024/01/19 06:58:48;;;;;;;33.07;16.10;;;0.90;99.90;;;;;;5033035;28;20423;-72
2024/01/19 07:01:13;;;;;;;29.10;16.43;;;0.90;99.90;;;;;;5032074;28;20997;-72
2024/01/19 07:03:39;;;;;;;32.37;16.80;;;0.90;99.90;;;;;;5027945;28;20183;-71
2024/01/19 07:06:05;;;;;;;31.60;17.27;;;0.90;99.90;;;;;;5030743;28;20312;-71
2024/01/19 07:08:31;;;;;;;25.33;14.57;;;0.90;99.90;;;;;;5032738;28;20183;-71
2024/01/19 07:10:56;;;;;;;35.40;18.00;;;0.90;99.90;;;;;;5031536;28;20243;-71
2024/01/19 07:13:23;;;;;;;26.90;16.50;;;0.90;99.90;;;;;;5015759;28;20189;-71
2024/01/19 07:15:49;;;;;;;33.10;17.80;;;1.00;99.90;;;;;;5015282;28;20451;-71
2024/01/19 07:18:14;;;;;;;26.93;15.60;;;1.00;99.90;;;;;;5032568;28;21245;-71
2024/01/19 07:20:41;;;;;;;30.67;17.63;;;1.00;99.90;;;;;;5032757;28;21306;-71
2024/01/19 07:23:07;;;;;;;33.20;17.77;;;1.00;99.90;;;;;;5033174;28;20181;-71
2024/01/19 07:25:33;;;;;;;35.20;18.10;;;1.10;99.90;;;;;;4999273;28;21189;-72
2024/01/19 07:27:58;;;;;;;36.40;18.27;;;1.00;99.90;;;;;;5033256;28;20264;-71
2024/01/19 07:30:24;;;;;;;36.13;18.60;;;1.00;99.90;;;;;;5033111;28;20244;-72
2024/01/19 07:32:50;;;;;;;31.90;17.93;;;1.00;99.90;;;;;;5033322;28;20201;-72
2024/01/19 07:35:17;;;;;;;30.87;16.90;;;1.00;99.90;;;;;;5030532;28;20186;-71
2024/01/19 07:37:43;;;;;;;32.20;19.07;;;1.00;99.90;;;;;;5032009;28;20189;-72
2024/01/19 07:40:08;;;;;;;33.20;18.97;;;1.00;99.90;;;;;;5013567;28;20483;-71
2024/01/19 07:42:34;;;;;;;29.97;17.40;;;1.00;99.90;;;;;;5032529;28;20200;-72
2024/01/19 07:45:00;;;;;;;27.47;17.40;;;1.10;99.90;;;;;;5031307;28;20421;-72
2024/01/19 07:47:25;;;;;;;27.13;16.83;;;1.10;99.90;;;;;;5031656;28;20213;-71
2024/01/19 07:49:52;;;;;;;35.60;19.63;;;1.10;99.90;;;;;;5032046;28;20196;-72
2024/01/19 07:52:18;;;;;;;36.00;21.00;;;1.10;99.90;;;;;;5032999;28;20190;-72
2024/01/19 07:54:44;;;;;;;36.00;19.33;;;1.00;99.90;;;;;;5032705;28;20432;-71
2024/01/19 07:57:09;;;;;;;34.80;20.07;;;1.00;99.90;;;;;;5032939;28;21072;-71
2024/01/19 07:59:35;;;;;;;39.63;19.03;;;1.10;99.90;;;;;;5032224;28;20549;-72
2024/01/19 08:02:03;;;;;;;33.87;18.67;;;1.10;99.90;;;;;;5032457;28;20820;-71
2024/01/19 08:04:29;;;;;;;32.70;20.10;;;1.10;99.90;;;;;;5033125;28;20599;-72
2024/01/19 08:06:55;;;;;;;38.67;19.73;;;1.10;99.90;;;;;;5013882;28;20484;-71
2024/01/19 08:09:20;;;;;;;36.47;21.90;;;1.10;99.90;;;;;;5033393;28;20421;-72
2024/01/19 08:11:46;;;;;;;34.60;19.97;;;1.20;99.90;;;;;;5031849;28;20190;-71
2024/01/19 08:14:12;;;;;;;29.87;20.20;;;1.20;99.90;;;;;;5015029;28;20183;-72
2024/01/19 08:16:37;;;;;;;34.93;21.63;;;1.20;99.90;;;;;;5032347;28;20200;-72
2024/01/19 08:19:03;;;;;;;33.63;20.83;;;1.20;99.90;;;;;;5032120;28;20214;-72
2024/01/19 08:21:29;;;;;;;34.70;20.63;;;1.20;99.90;;;;;;5033179;28;20183;-72
2024/01/19 08:23:56;;;;;;;33.60;21.37;;;1.20;99.90;;;;;;5032975;28;20333;-72
2024/01/19 08:26:22;;;;;;;33.70;20.40;;;1.10;99.90;;;;;;5032396;28;20209;-71
2024/01/19 08:28:48;;;;;;;35.77;19.87;;;1.10;99.90;;;;;;5032932;28;20425;-72
2024/01/19 08:31:14;;;;;;;31.63;21.13;;;1.20;99.90;;;;;;5037063;28;20198;-71
2024/01/19 08:33:39;;;;;;;34.33;20.77;;;1.20;99.90;;;;;;5037048;28;20707;-72
2024/01/19 08:36:05;;;;;;;33.03;20.10;;;1.20;99.90;;;;;;5035220;28;20519;-72
2024/01/19 08:38:31;;;;;;;32.70;21.03;;;1.20;99.90;;;;;;5034618;28;20225;-72
2024/01/19 08:40:57;;;;;;;35.13;23.10;;;1.20;99.90;;;;;;5036131;28;20420;-72
2024/01/19 08:43:22;;;;;;;37.37;20.87;;;1.20;99.90;;;;;;5036479;28;20185;-71
2024/01/19 08:45:48;;;;;;;33.90;19.43;;;1.20;99.90;;;;;;5035678;28;20233;-72
2024/01/19 08:48:13;;;;;;;31.47;20.50;;;1.20;99.90;;;;;;5037226;28;20205;-71
2024/01/19 08:50:40;;;;;;;29.27;19.70;;;1.20;99.90;;;;;;5036585;28;20186;-72
2024/01/19 08:53:06;;;;;;;31.70;20.20;;;1.20;99.90;;;;;;5036078;28;20259;-71
2024/01/19 08:55:32;;;;;;;32.17;19.50;;;1.20;99.90;;;;;;5036447;28;20424;-71
2024/01/19 08:57:58;;;;;;;28.93;19.40;;;1.20;99.90;;;;;;5035623;28;20502;-72
2024/01/19 09:00:23;;;;;;;26.77;18.73;;;1.20;99.90;;;;;;5036431;28;20193;-71
2024/01/19 09:02:49;;;;;;;31.97;20.73;;;1.20;99.90;;;;;;5035343;28;20664;-72
2024/01/19 09:05:16;;;;;;;35.43;20.77;;;1.30;99.90;;;;;;5036484;28;20991;-72
2024/01/19 09:07:42;;;;;;;31.27;18.77;;;1.30;99.90;;;;;;5035109;28;20518;-72
2024/01/19 09:10:08;;;;;;;27.77;18.67;;;1.30;99.90;;;;;;5036388;28;20490;-71
2024/01/19 09:12:33;;;;;;;29.90;20.00;;;1.30;99.90;;;;;;5036200;28;20425;-72
2024/01/19 09:14:59;;;;;;;30.10;20.73;;;1.30;99.90;;;;;;5035777;28;20436;-72
2024/01/19 09:17:25;;;;;;;29.13;18.53;;;1.30;99.90;;;;;;5036180;28;20243;-71
2024/01/19 09:19:51;;;;;;;29.27;18.67;;;1.30;99.90;;;;;;5035325;28;20186;-72
2024/01/19 09:22:17;;;;;;;30.33;19.37;;;1.30;99.90;;;;;;5035279;28;20298;-71
2024/01/19 09:24:43;;;;;;;31.53;19.33;;;1.30;99.90;;;;;;5035269;28;21065;-71
2024/01/19 09:27:09;;;;;;;31.63;19.20;;;1.40;99.90;;;;;;5001765;28;20570;-71
2024/01/19 09:29:35;;;;;;;30.10;19.13;;;1.40;99.90;;;;;;5035617;28;20513;-72
2024/01/19 09:32:01;;;;;;;28.70;18.93;;;1.40;99.90;;;;;;5035173;28;20186;-72
2024/01/19 09:34:26;;;;;;;31.83;21.03;;;1.40;99.90;;;;;;5035201;28;20418;-72
2024/01/19 09:36:52;;;;;;;36.10;21.00;;;1.40;99.90;;;;;;5034909;28;20429;-72
2024/01/19 09:39:19;;;;;;;34.87;21.23;;;1.40;99.90;;;;;;5002433;28;20577;-71
2024/01/19 09:41:44;;;;;;;34.57;20.83;;;1.40;99.90;;;;;;5033750;28;20200;-72
2024/01/19 09:44:12;;;;;;;33.50;21.80;;;1.40;99.90;;;;;;5035815;28;20946;-72
2024/01/19 09:47:01;;;;;;;33.73;22.50;;;1.40;99.90;;;;;;5034877;28;20206;-72
2024/01/19 09:49:47;;;;;;;33.90;21.03;;;1.40;99.90;;;;;;5035239;28;20432;-71
2024/01/19 09:52:22;;;;;;;33.77;21.10;;;1.40;99.90;;;;;;5034659;28;20557;-72
2024/01/19 09:54:48;;;;;;;35.23;22.40;;;1.40;99.90;;;;;;5034657;28;20923;-72
2024/01/19 09:57:14;;;;;;;40.03;22.77;;;1.40;99.90;;;;;;5035712;28;20527;-72
2024/01/19 09:59:40;;;;;;;32.10;20.70;;;1.50;99.90;;;;;;5035078;28;20437;-72
2024/01/19 10:02:08;;;;;;;36.27;22.03;;;1.40;99.90;;;;;;5035196;28;21007;-72
2024/01/19 10:04:34;;;;;;;35.47;21.57;;;1.40;99.90;;;;;;5034910;28;20428;-72
2024/01/19 10:07:01;;;;;;;36.27;21.47;;;1.50;99.90;;;;;;5001108;28;20901;-72
2024/01/19 10:09:28;;;;;;;36.03;21.70;;;1.50;99.90;;;;;;5034477;28;20433;-71
2024/01/19 10:11:55;;;;;;;35.63;20.27;;;1.40;99.90;;;;;;5034136;28;20787;-72
2024/01/19 10:14:21;;;;;;;34.70;21.90;;;1.50;99.90;;;;;;5035081;28;20441;-71
2024/01/19 10:16:51;;;;;;;32.90;20.90;;;1.50;99.90;;;;;;5033042;28;20473;-71
2024/01/19 10:19:20;;;;;;;34.03;20.80;;;1.50;99.90;;;;;;5035139;28;20433;-71
2024/01/19 10:21:46;;;;;;;37.50;21.67;;;1.40;99.90;;;;;;5033654;28;20527;-72
2024/01/19 10:24:19;;;;;;;39.00;21.60;;;1.50;99.90;;;;;;5034758;28;21026;-72
2024/01/19 10:26:51;;;;;;;38.43;22.20;;;1.50;99.90;;;;;;5033772;28;20479;-72
2024/01/19 10:29:17;;;;;;;39.40;20.93;;;1.50;99.90;;;;;;5034715;28;20451;-72
2024/01/19 10:31:46;;;;;;;38.13;24.60;;;1.60;99.90;;;;;;5033647;28;20930;-71
2024/01/19 10:34:23;;;;;;;36.47;22.20;;;1.60;99.90;;;;;;5033702;28;20269;-72
2024/01/19 10:36:50;;;;;;;33.40;20.70;;;1.60;99.90;;;;;;5015500;28;20511;-71
2024/01/19 10:39:31;;;;;;;35.17;22.80;;;1.60;99.90;;;;;;5034317;28;20433;-72
2024/01/19 10:42:09;;;;;;;33.63;21.13;;;1.60;99.90;;;;;;5033539;28;20440;-71
2024/01/19 10:44:34;;;;;;;34.83;19.93;;;1.70;99.90;;;;;;5016638;28;20550;-72
2024/01/19 10:47:00;;;;;;;37.03;21.83;;;1.70;99.90;;;;;;5033754;28;21213;-72
2024/01/19 10:49:26;;;;;;;33.20;20.57;;;1.70;99.90;;;;;;5016393;28;20243;-72
2024/01/19 10:51:53;;;;;;;31.00;21.27;;;1.70;99.90;;;;;;5032012;28;20432;-72
2024/01/19 10:54:27;;;;;;;30.80;19.93;;;1.70;99.90;;;;;;5033722;28;20463;-71
2024/01/19 10:57:03;;;;;;;34.43;21.00;;;1.70;99.90;;;;;;5032259;28;21128;-69
2024/01/19 10:59:29;;;;;;;38.00;18.80;;;1.70;99.90;;;;;;5033853;28;20519;-69
2024/01/19 11:02:00;;;;;;;40.60;21.70;;;1.80;99.90;;;;;;5032638;28;20530;-72
2024/01/19 11:04:26;;;;;;;34.60;19.43;;;1.80;99.90;;;;;;5033691;28;20436;-72
2024/01/19 11:06:52;;;;;;;35.47;19.87;;;1.80;99.90;;;;;;5031995;28;20480;-72
2024/01/19 11:09:18;;;;;;;33.03;21.90;;;1.80;99.90;;;;;;5033453;28;20424;-72
2024/01/19 11:12:02;;;;;;;27.27;18.33;;;1.80;99.90;;;;;;5032722;28;20186;-72
2024/01/19 11:14:30;;;;;;;27.73;17.80;;;1.80;99.90;;;;;;5032994;28;20193;-71
2024/01/19 11:16:56;;;;;;;32.30;19.33;;;1.90;99.90;;;;;;5032394;28;20461;-72
2024/01/19 11:19:23;;;;;;;33.50;18.80;;;1.90;99.90;;;;;;5015440;28;20421;-71
2024/01/19 11:21:49;;;;;;;29.17;19.40;;;2.00;99.90;;;;;;5025068;28;20440;-72
2024/01/19 11:24:18;;;;;;;31.80;19.57;;;2.10;99.90;;;;;;5032336;28;20445;-72
2024/01/19 11:26:47;;;;;;;31.23;18.33;;;2.20;99.90;;;;;;5031437;28;20517;-72
2024/01/19 11:29:31;;;;;;;37.03;18.67;;;2.20;99.90;;;;;;5031840;28;20425;-72
2024/01/19 11:31:59;;;;;;;25.80;17.90;;;2.20;99.90;;;;;;5031486;28;20475;-72
2024/01/19 11:34:50;;;;;;;33.00;17.13;;;2.20;99.90;;;;;;5031875;28;20519;-72
2024/01/19 11:37:41;;;;;;;28.30;18.57;;;2.20;99.90;;;;;;5031733;28;20440;-71
2024/01/19 11:40:07;;;;;;;30.90;17.40;;;2.10;99.90;;;;;;4999527;28;20430;-69
2024/01/19 11:42:42;;;;;;;28.07;18.47;;;2.10;99.90;;;;;;5031500;28;20463;-71
2024/01/19 11:45:08;;;;;;;26.30;17.30;;;2.10;99.90;;;;;;5031782;28;21113;-70
2024/01/19 11:47:38;;;;;;;29.67;17.67;;;2.10;99.90;;;;;;5032597;28;20486;-70
2024/01/19 11:50:08;;;;;;;26.83;16.73;;;2.20;99.90;;;;;;5030932;28;20829;-70
2024/01/19 11:52:35;;;;;;;25.07;15.83;;;2.30;99.90;;;;;;5031875;28;20420;-70
2024/01/19 11:55:25;;;;;;;25.60;16.90;;;2.40;99.90;;;;;;5032552;28;20424;-70
2024/01/19 11:57:52;;;;;;;29.03;17.00;;;2.50;99.90;;;;;;5031430;28;20486;-70
2024/01/19 12:00:19;;;;;;;24.90;15.30;;;2.40;99.90;;;;;;5032342;28;20437;-70
2024/01/19 12:02:46;;;;;;;24.90;16.07;;;2.40;99.90;;;;;;5031409;28;21163;-70
2024/01/19 12:05:12;;;;;;;28.50;16.97;;;2.30;99.90;;;;;;5016587;28;20471;-70
2024/01/19 12:07:39;;;;;;;21.37;14.67;;;2.40;99.90;;;;;;5034070;28;20804;-71
2024/01/19 12:10:11;;;;;;;27.80;15.73;;;2.30;99.90;;;;;;5036122;28;20445;-71
2024/01/19 12:12:38;;;;;;;23.93;15.10;;;2.30;99.90;;;;;;5034927;28;20424;-71
2024/01/19 12:15:06;;;;;;;25.27;17.17;;;2.30;99.90;;;;;;5034926;28;20569;-71
2024/01/19 12:17:33;;;;;;;20.40;14.77;;;2.40;99.90;;;;;;5034298;28;20435;-71
2024/01/19 12:19:59;;;;;;;27.33;17.40;;;2.50;99.90;;;;;;5035426;28;20428;-71
2024/01/19 12:22:25;;;;;;;23.13;15.90;;;2.60;99.90;;;;;;5032505;28;20497;-71
2024/01/19 12:24:50;;;;;;;21.20;14.60;;;2.70;99.90;;;;;;5033741;28;20624;-71
2024/01/19 12:27:17;;;;;;;25.47;15.90;;;2.90;99.90;;;;;;5033797;28;20225;-71
2024/01/19 12:29:43;;;;;;;22.23;15.80;;;2.90;99.90;;;;;;5035177;28;20218;-71
2024/01/19 12:32:10;;;;;;;22.90;15.93;;;3.00;99.90;;;;;;5034670;28;20512;-71